createdAt,value
2018-09-23T00:00:12.898Z,4.43
2018-09-23T00:02:40.858Z,4.83
2018-09-23T00:05:08.858Z,4.73
2018-09-23T00:07:36.770Z,4.37
2018-09-23T00:10:04.870Z,3.33
2018-09-23T00:12:32.832Z,3.40
2018-09-23T00:15:00.842Z,3.87
2018-09-23T00:17:28.826Z,4.53
2018-09-23T00:19:56.815Z,3.63
2018-09-23T00:22:24.931Z,6.40
2018-09-23T00:24:52.829Z,5.80
2018-09-23T00:27:20.818Z,4.17
2018-09-23T00:29:50.323Z,4.57
2018-09-23T00:32:21.817Z,5.20
2018-09-23T00:34:49.746Z,4.53
2018-09-23T00:37:17.655Z,4.60
2018-09-23T00:39:45.639Z,4.10
2018-09-23T00:42:13.637Z,4.00
2018-09-23T00:44:41.585Z,4.30
2018-09-23T00:47:09.578Z,4.33
2018-09-23T00:49:37.568Z,4.67
2018-09-23T00:52:05.582Z,4.03
2018-09-23T00:54:33.606Z,4.27
2018-09-23T00:57:01.611Z,6.20
2018-09-23T00:59:29.531Z,5.27
2018-09-23T01:01:57.527Z,5.97
2018-09-23T01:04:25.466Z,4.67
2018-09-23T01:06:53.374Z,5.67
2018-09-23T01:09:21.319Z,5.97
2018-09-23T01:11:49.270Z,7.77
2018-09-23T01:14:17.192Z,4.77
2018-09-23T01:16:45.282Z,4.70
2018-09-23T01:19:13.254Z,5.60
2018-09-23T01:21:41.194Z,5.57
2018-09-23T01:24:09.149Z,4.60
2018-09-23T01:26:37.058Z,4.60
2018-09-23T01:29:05.091Z,5.77
2018-09-23T01:31:32.967Z,5.03
2018-09-23T01:34:00.938Z,4.33
2018-09-23T01:36:28.857Z,4.90
2018-09-23T01:38:56.778Z,4.20
2018-09-23T01:41:24.746Z,4.27
2018-09-23T01:43:52.677Z,4.80
2018-09-23T01:46:20.647Z,5.83
2018-09-23T01:48:48.586Z,5.70
2018-09-23T01:51:16.555Z,6.47
2018-09-23T01:53:44.479Z,5.87
2018-09-23T01:56:12.421Z,4.53
2018-09-23T01:58:40.394Z,4.13
2018-09-23T02:01:08.342Z,4.40
2018-09-23T02:03:36.325Z,4.10
2018-09-23T02:06:04.273Z,5.07
2018-09-23T02:08:32.217Z,3.97
2018-09-23T02:11:00.153Z,4.70
2018-09-23T02:13:28.145Z,4.27
2018-09-23T02:15:56.078Z,4.30
2018-09-23T02:18:24.117Z,5.53
2018-09-23T02:20:52.046Z,4.93
2018-09-23T02:23:19.930Z,4.47
2018-09-23T02:25:47.965Z,4.60
2018-09-23T02:28:15.950Z,4.47
2018-09-23T02:30:43.859Z,4.43
2018-09-23T02:33:12.698Z,4.63
2018-09-23T02:35:40.759Z,4.40
2018-09-23T02:38:08.706Z,4.87
2018-09-23T02:40:36.622Z,5.17
2018-09-23T02:43:04.570Z,4.90
2018-09-23T02:45:32.522Z,5.33
2018-09-23T02:48:00.459Z,6.10
2018-09-23T02:50:28.366Z,4.93
2018-09-23T02:52:56.436Z,5.20
2018-09-23T02:55:24.397Z,6.43
2018-09-23T02:57:52.378Z,4.27
2018-09-23T03:00:20.965Z,4.53
2018-09-23T03:02:48.976Z,5.53
2018-09-23T03:05:16.949Z,5.20
2018-09-23T03:07:45.002Z,5.20
2018-09-23T03:10:13.019Z,5.67
2018-09-23T03:12:40.991Z,6.93
2018-09-23T03:15:08.928Z,5.07
2018-09-23T03:17:36.805Z,5.93
2018-09-23T03:20:04.862Z,5.97
2018-09-23T03:22:32.819Z,5.60
2018-09-23T03:25:00.760Z,5.20
2018-09-23T03:27:28.639Z,6.37
2018-09-23T03:29:56.701Z,6.10
2018-09-23T03:32:24.655Z,5.87
2018-09-23T03:34:52.603Z,7.78
2018-09-23T03:37:20.578Z,4.90
2018-09-23T03:39:48.641Z,5.20
2018-09-23T03:42:16.729Z,6.40
2018-09-23T03:44:44.670Z,5.20
2018-09-23T03:47:12.689Z,4.07
2018-09-23T03:49:40.653Z,3.40
2018-09-23T03:52:08.623Z,4.28
2018-09-23T03:54:36.530Z,3.00
2018-09-23T03:57:04.478Z,3.20
2018-09-23T03:59:32.422Z,3.80
2018-09-23T04:02:00.317Z,3.53
2018-09-23T04:04:28.269Z,3.20
2018-09-23T04:06:56.221Z,2.93
2018-09-23T04:09:24.190Z,3.27
2018-09-23T04:11:52.155Z,3.17
2018-09-23T04:14:20.136Z,4.23
2018-09-23T04:16:48.046Z,4.10
2018-09-23T04:19:15.967Z,3.67
2018-09-23T04:21:43.915Z,4.07
2018-09-23T04:24:11.933Z,4.03
2018-09-23T04:26:39.865Z,3.73
2018-09-23T04:29:07.911Z,7.23
2018-09-23T04:31:35.852Z,3.77
2018-09-23T04:34:03.848Z,5.33
2018-09-23T04:36:31.838Z,3.17
2018-09-23T04:38:59.805Z,4.33
2018-09-23T04:41:27.767Z,3.20
2018-09-23T04:43:55.690Z,4.20
2018-09-23T04:46:23.682Z,4.80
2018-09-23T04:48:51.651Z,3.47
2018-09-23T04:51:19.666Z,5.80
2018-09-23T04:53:47.716Z,3.60
2018-09-23T04:56:15.669Z,3.10
2018-09-23T04:58:43.706Z,4.53
2018-09-23T05:01:11.803Z,4.37
2018-09-23T05:03:39.802Z,4.10
2018-09-23T05:06:07.771Z,4.37
2018-09-23T05:08:35.777Z,3.57
2018-09-23T05:11:03.696Z,4.47
2018-09-23T05:13:31.762Z,3.40
2018-09-23T05:16:00.309Z,3.67
2018-09-23T05:18:28.210Z,3.60
2018-09-23T05:20:57.037Z,3.90
2018-09-23T05:23:25.027Z,3.70
2018-09-23T05:25:53.001Z,3.50
2018-09-23T05:28:21.020Z,3.40
2018-09-23T05:30:49.014Z,4.30
2018-09-23T05:33:17.065Z,4.17
2018-09-23T05:35:45.029Z,4.40
2018-09-23T05:38:26.047Z,6.07
2018-09-23T05:40:54.427Z,3.70
2018-09-23T05:43:22.495Z,5.03
2018-09-23T05:45:51.537Z,3.90
2018-09-23T05:48:19.481Z,9.23
2018-09-23T05:50:47.442Z,4.50
2018-09-23T05:53:15.555Z,4.27
2018-09-23T05:55:45.999Z,4.60
2018-09-23T05:58:14.826Z,4.83
2018-09-23T06:00:46.520Z,5.00
2018-09-23T06:03:14.762Z,6.33
2018-09-23T06:05:43.036Z,6.50
2018-09-23T06:08:10.972Z,5.93
2018-09-23T06:10:39.211Z,5.57
2018-09-23T06:13:16.981Z,5.77
2018-09-23T06:15:45.021Z,6.27
2018-09-23T06:18:13.610Z,6.10
2018-09-23T06:20:42.075Z,6.27
2018-09-23T06:23:10.247Z,6.53
2018-09-23T06:25:38.302Z,7.27
2018-09-23T06:28:06.340Z,7.10
2018-09-23T06:30:34.347Z,8.47
2018-09-23T06:33:02.321Z,8.17
2018-09-23T06:35:30.386Z,9.23
2018-09-23T06:37:58.349Z,9.57
2018-09-23T06:40:26.412Z,9.53
2018-09-23T06:42:55.046Z,8.53
2018-09-23T06:45:23.053Z,8.80
2018-09-23T06:47:51.122Z,6.90
2018-09-23T06:50:19.083Z,8.93
2018-09-23T06:52:47.084Z,6.53
2018-09-23T06:55:15.077Z,6.50
2018-09-23T06:57:43.164Z,5.77
2018-09-23T07:00:11.210Z,6.53
2018-09-23T07:02:39.222Z,5.40
2018-09-23T07:05:07.204Z,4.17
2018-09-23T07:07:35.233Z,5.00
2018-09-23T07:10:03.261Z,5.80
2018-09-23T07:12:31.238Z,6.17
2018-09-23T07:14:59.261Z,5.47
2018-09-23T07:17:27.250Z,5.43
2018-09-23T07:19:55.294Z,4.90
2018-09-23T07:22:35.710Z,3.87
2018-09-23T07:25:03.637Z,4.93
2018-09-23T07:27:31.863Z,5.00
2018-09-23T07:29:59.882Z,3.40
2018-09-23T07:32:28.304Z,3.80
2018-09-23T07:34:56.231Z,4.13
2018-09-23T07:37:24.267Z,4.30
2018-09-23T07:39:52.272Z,3.97
2018-09-23T07:42:20.305Z,3.70
2018-09-23T07:44:48.277Z,3.70
2018-09-23T07:47:16.297Z,3.17
2018-09-23T07:49:44.363Z,3.60
2018-09-23T07:52:12.317Z,2.87
2018-09-23T07:54:40.314Z,2.53
2018-09-23T07:57:08.237Z,2.50
2018-09-23T07:59:36.233Z,2.83
2018-09-23T08:02:04.208Z,2.23
2018-09-23T08:04:32.385Z,2.83
2018-09-23T08:07:00.342Z,2.43
2018-09-23T08:09:28.427Z,2.30
2018-09-23T08:11:56.668Z,2.67
2018-09-23T08:14:24.960Z,2.27
2018-09-23T08:16:52.673Z,2.63
2018-09-23T08:19:20.698Z,2.77
2018-09-23T08:21:49.160Z,2.30
2018-09-23T08:24:17.128Z,1.90
2018-09-23T08:26:45.117Z,2.50
2018-09-23T08:29:13.133Z,2.00
2018-09-23T08:31:41.085Z,2.63
2018-09-23T08:34:09.164Z,1.50
2018-09-23T08:36:37.108Z,2.23
2018-09-23T08:39:06.148Z,1.93
2018-09-23T08:41:34.213Z,1.40
2018-09-23T08:44:02.205Z,1.63
2018-09-23T08:46:30.118Z,1.43
2018-09-23T08:48:58.167Z,1.43
2018-09-23T08:51:26.096Z,1.57
2018-09-23T08:53:54.034Z,1.40
2018-09-23T08:56:21.960Z,1.27
2018-09-23T08:58:49.933Z,1.30
2018-09-23T09:01:17.979Z,1.60
2018-09-23T09:03:45.994Z,1.20
2018-09-23T09:06:13.952Z,1.37
2018-09-23T09:08:41.860Z,1.17
2018-09-23T09:11:09.879Z,1.57
2018-09-23T09:13:37.783Z,1.43
2018-09-23T09:16:05.850Z,1.20
2018-09-23T09:18:33.879Z,1.37
2018-09-23T09:21:02.397Z,1.70
2018-09-23T09:23:30.346Z,1.53
2018-09-23T09:25:58.360Z,2.17
2018-09-23T09:28:26.312Z,1.97
2018-09-23T09:30:54.293Z,1.53
2018-09-23T09:33:22.250Z,1.60
2018-09-23T09:35:50.184Z,1.40
2018-09-23T09:38:18.416Z,1.70
2018-09-23T09:40:46.889Z,1.70
2018-09-23T09:43:14.907Z,1.83
2018-09-23T09:45:42.804Z,1.70
2018-09-23T09:48:10.729Z,1.60
2018-09-23T09:50:38.713Z,1.63
2018-09-23T09:53:06.655Z,1.50
2018-09-23T09:55:34.649Z,1.23
2018-09-23T09:58:02.564Z,1.43
2018-09-23T10:00:32.713Z,1.20
2018-09-23T10:03:00.753Z,1.50
2018-09-23T10:05:28.774Z,1.40
2018-09-23T10:07:56.720Z,1.70
2018-09-23T10:10:24.677Z,2.40
2018-09-23T10:12:52.641Z,1.70
2018-09-23T10:15:20.555Z,1.30
2018-09-23T10:17:48.478Z,1.60
2018-09-23T10:20:16.442Z,1.80
2018-09-23T10:22:44.678Z,1.70
2018-09-23T10:25:13.038Z,1.90
2018-09-23T10:27:40.961Z,1.57
2018-09-23T10:30:09.709Z,2.17
2018-09-23T10:32:37.697Z,2.00
2018-09-23T10:35:05.850Z,1.93
2018-09-23T10:37:33.793Z,2.13
2018-09-23T10:40:01.724Z,1.87
2018-09-23T10:42:29.669Z,2.10
2018-09-23T10:44:57.605Z,2.30
2018-09-23T10:47:25.534Z,2.10
2018-09-23T10:49:53.461Z,2.20
2018-09-23T10:52:21.421Z,2.17
2018-09-23T10:54:49.351Z,2.20
2018-09-23T10:57:17.293Z,1.63
2018-09-23T10:59:45.287Z,1.80
2018-09-23T11:02:13.225Z,2.37
2018-09-23T11:04:41.113Z,2.40
2018-09-23T11:07:09.006Z,2.03
2018-09-23T11:09:36.939Z,1.87
2018-09-23T11:12:04.965Z,1.70
2018-09-23T11:14:33.374Z,1.50
2018-09-23T11:17:02.199Z,1.80
2018-09-23T11:19:30.166Z,2.10
2018-09-23T11:21:58.176Z,2.00
2018-09-23T11:24:26.127Z,1.90
2018-09-23T11:26:54.738Z,1.83
2018-09-23T11:29:22.686Z,2.00
2018-09-23T11:31:50.669Z,1.97
2018-09-23T11:34:18.560Z,2.10
2018-09-23T11:36:46.573Z,1.70
2018-09-23T11:39:14.525Z,2.30
2018-09-23T11:41:42.427Z,2.37
2018-09-23T11:44:10.405Z,2.13
2018-09-23T11:46:38.541Z,2.00
2018-09-23T11:49:06.550Z,2.13
2018-09-23T11:51:34.558Z,2.40
2018-09-23T11:54:02.523Z,2.27
2018-09-23T11:56:30.577Z,2.10
2018-09-23T11:58:59.313Z,2.00
2018-09-23T12:01:27.997Z,2.97
2018-09-23T12:03:55.925Z,2.50
2018-09-23T12:06:23.881Z,2.60
2018-09-23T12:08:51.800Z,2.80
2018-09-23T12:11:19.757Z,2.70
2018-09-23T12:13:47.718Z,2.37
2018-09-23T12:16:15.666Z,2.33
2018-09-23T12:18:43.673Z,2.43
2018-09-23T12:21:11.601Z,2.87
2018-09-23T12:23:39.518Z,2.60
2018-09-23T12:26:08.338Z,2.43
2018-09-23T12:28:36.396Z,3.07
2018-09-23T12:31:04.301Z,3.30
2018-09-23T12:33:32.208Z,3.03
2018-09-23T12:36:02.841Z,3.40
2018-09-23T12:38:32.071Z,3.83
2018-09-23T12:41:00.123Z,3.77
2018-09-23T12:43:28.310Z,3.63
2018-09-23T12:45:56.864Z,3.00
2018-09-23T12:48:24.964Z,3.70
2018-09-23T12:50:53.018Z,3.07
2018-09-23T12:53:20.921Z,3.10
2018-09-23T12:55:49.021Z,3.00
2018-09-23T12:58:16.956Z,3.37
2018-09-23T13:00:45.051Z,3.60
2018-09-23T13:03:13.870Z,2.50
2018-09-23T13:05:41.838Z,2.90
2018-09-23T13:08:09.798Z,3.63
2018-09-23T13:10:38.170Z,3.63
2018-09-23T13:13:06.178Z,3.77
2018-09-23T13:15:34.082Z,3.70
2018-09-23T13:18:02.080Z,4.23
2018-09-23T13:20:30.038Z,4.53
2018-09-23T13:22:58.058Z,3.60
2018-09-23T13:25:26.019Z,5.63
2018-09-23T13:27:53.961Z,4.53
2018-09-23T13:30:22.057Z,4.50
2018-09-23T13:32:50.026Z,3.67
2018-09-23T13:35:17.994Z,3.77
2018-09-23T13:37:46.540Z,4.00
2018-09-23T13:40:14.623Z,3.77
2018-09-23T13:42:43.097Z,4.20
2018-09-23T13:45:11.080Z,3.50
2018-09-23T13:47:39.002Z,3.30
2018-09-23T13:50:07.066Z,3.43
2018-09-23T13:52:35.231Z,3.17
2018-09-23T13:55:03.242Z,3.00
2018-09-23T13:57:31.181Z,2.97
2018-09-23T13:59:59.159Z,4.30
2018-09-23T14:02:27.266Z,3.70
2018-09-23T14:04:55.168Z,3.63
2018-09-23T14:07:23.097Z,3.70
2018-09-23T14:09:50.987Z,5.50
2018-09-23T14:12:18.956Z,3.70
2018-09-23T14:14:47.018Z,3.17
2018-09-23T14:17:14.922Z,4.00
2018-09-23T14:19:42.942Z,3.37
2018-09-23T14:22:10.846Z,3.67
2018-09-23T14:24:38.774Z,3.10
2018-09-23T14:27:06.751Z,3.17
2018-09-23T14:29:34.657Z,3.50
2018-09-23T14:32:02.551Z,3.40
2018-09-23T14:34:30.511Z,3.30
2018-09-23T14:36:59.194Z,3.40
2018-09-23T14:39:27.141Z,2.90
2018-09-23T14:41:54.872Z,2.83
2018-09-23T14:44:22.685Z,2.77
2018-09-23T14:46:50.499Z,4.10
2018-09-23T14:49:18.369Z,3.50
2018-09-23T14:51:46.219Z,3.80
2018-09-23T14:54:14.240Z,3.30
2018-09-23T14:56:42.186Z,3.67
2018-09-23T14:59:10.275Z,3.37
2018-09-23T15:01:38.269Z,3.57
2018-09-23T15:04:06.270Z,3.57
2018-09-23T15:06:34.153Z,3.20
2018-09-23T15:09:02.092Z,3.63
2018-09-23T15:11:29.984Z,4.20
2018-09-23T15:13:57.908Z,4.03
2018-09-23T15:16:25.896Z,3.57
2018-09-23T15:18:53.808Z,4.27
2018-09-23T15:21:21.725Z,4.03
2018-09-23T15:23:49.675Z,3.57
2018-09-23T15:26:17.546Z,4.00
2018-09-23T15:28:45.458Z,4.30
2018-09-23T15:31:13.445Z,3.70
2018-09-23T15:33:41.366Z,4.13
2018-09-23T15:36:09.331Z,4.27
2018-09-23T15:38:37.259Z,3.63
2018-09-23T15:41:06.054Z,3.20
2018-09-23T15:43:33.959Z,4.13
2018-09-23T15:46:01.900Z,3.77
2018-09-23T15:48:29.826Z,3.93
2018-09-23T15:50:57.758Z,3.83
2018-09-23T15:53:25.641Z,4.23
2018-09-23T15:55:53.522Z,3.63
2018-09-23T15:58:21.451Z,4.00
2018-09-23T16:00:49.380Z,4.23
2018-09-23T16:03:17.433Z,4.33
2018-09-23T16:05:45.336Z,4.13
2018-09-23T16:08:13.260Z,4.60
2018-09-23T16:10:41.154Z,4.63
2018-09-23T16:13:09.076Z,4.10
2018-09-23T16:15:37.004Z,4.83
2018-09-23T16:18:04.886Z,4.50
2018-09-23T16:20:32.870Z,4.63
2018-09-23T16:23:00.813Z,5.00
2018-09-23T16:25:28.771Z,4.13
2018-09-23T16:27:56.708Z,4.33
2018-09-23T16:30:24.631Z,4.50
2018-09-23T16:32:52.538Z,5.07
2018-09-23T16:35:20.489Z,4.13
2018-09-23T16:37:48.478Z,5.13
2018-09-23T16:40:16.295Z,5.20
2018-09-23T16:42:44.260Z,4.70
2018-09-23T16:45:12.186Z,4.90
2018-09-23T16:47:40.704Z,5.57
2018-09-23T16:50:08.728Z,6.20
2018-09-23T16:52:38.673Z,4.80
2018-09-23T16:55:06.706Z,4.70
2018-09-23T16:57:34.591Z,5.67
2018-09-23T17:00:02.602Z,5.53
2018-09-23T17:02:30.622Z,6.10
2018-09-23T17:04:58.349Z,5.87
2018-09-23T17:07:26.147Z,5.77
2018-09-23T17:09:53.901Z,6.50
2018-09-23T17:12:21.604Z,6.03
2018-09-23T17:14:49.353Z,5.43
2018-09-23T17:17:17.089Z,5.90
2018-09-23T17:19:44.845Z,6.00
2018-09-23T17:22:12.657Z,6.17
2018-09-23T17:24:40.552Z,6.50
2018-09-23T17:27:08.449Z,5.53
2018-09-23T17:29:36.202Z,6.87
2018-09-23T17:32:04.023Z,5.90
2018-09-23T17:34:31.777Z,5.93
2018-09-23T17:36:59.704Z,6.70
2018-09-23T17:39:27.448Z,8.17
2018-09-23T17:41:55.176Z,5.67
2018-09-23T17:44:22.892Z,5.97
2018-09-23T17:46:50.648Z,5.83
2018-09-23T17:49:18.461Z,6.73
2018-09-23T17:51:46.208Z,6.47
2018-09-23T17:54:14.033Z,6.23
2018-09-23T17:56:41.764Z,7.40
2018-09-23T17:59:09.570Z,5.97
2018-09-23T18:01:37.326Z,6.00
2018-09-23T18:04:05.524Z,6.30
2018-09-23T18:06:33.240Z,6.27
2018-09-23T18:09:00.981Z,6.83
2018-09-23T18:11:28.920Z,7.83
2018-09-23T18:13:56.723Z,8.00
2018-09-23T18:16:24.557Z,7.13
2018-09-23T18:18:52.685Z,6.43
2018-09-23T18:21:20.526Z,3.60
2018-09-23T18:23:48.279Z,9.20
2018-09-23T18:26:16.020Z,6.30
2018-09-23T18:28:44.058Z,3.67
2018-09-23T18:31:11.828Z,7.73
2018-09-23T18:33:39.533Z,12.90
2018-09-23T18:36:07.513Z,6.93
2018-09-23T18:38:35.445Z,7.40
2018-09-23T18:41:03.353Z,2.00
2018-09-23T18:43:31.122Z,3.23
2018-09-23T18:45:58.968Z,2.33
2018-09-23T18:48:27.094Z,4.73
2018-09-23T18:50:55.032Z,2.93
2018-09-23T18:53:23.936Z,3.80
2018-09-23T18:55:52.686Z,2.43
2018-09-23T18:58:20.698Z,3.10
2018-09-23T19:00:48.714Z,1.63
2018-09-23T19:03:16.831Z,2.30
2018-09-23T19:05:44.789Z,2.30
2018-09-23T19:08:12.762Z,3.37
2018-09-23T19:10:40.717Z,4.53
2018-09-23T19:13:14.153Z,2.83
2018-09-23T19:15:42.111Z,1.73
2018-09-23T19:18:10.052Z,6.00
2018-09-23T19:20:38.117Z,4.17
2018-09-23T19:23:12.614Z,3.83
2018-09-23T19:25:40.888Z,1.97
2018-09-23T19:28:08.950Z,3.80
2018-09-23T19:30:36.930Z,4.87
2018-09-23T19:33:04.931Z,1.27
2018-09-23T19:35:32.893Z,1.93
2018-09-23T19:38:00.827Z,2.40
2018-09-23T19:40:29.148Z,1.60
2018-09-23T19:42:57.155Z,1.93
2018-09-23T19:45:25.080Z,5.17
2018-09-23T19:47:53.087Z,1.67
2018-09-23T19:50:21.041Z,8.03
2018-09-23T19:52:52.073Z,3.10
2018-09-23T19:55:19.990Z,2.33
2018-09-23T19:57:48.071Z,2.00
2018-09-23T20:00:16.094Z,2.00
2018-09-23T20:02:44.006Z,1.33
2018-09-23T20:05:11.978Z,2.10
2018-09-23T20:07:39.971Z,1.10
2018-09-23T20:10:07.918Z,1.10
2018-09-23T20:12:35.854Z,2.00
2018-09-23T20:15:03.965Z,1.30
2018-09-23T20:17:31.894Z,1.77
2018-09-23T20:19:59.835Z,2.00
2018-09-23T20:22:27.791Z,1.73
2018-09-23T20:24:55.773Z,1.90
2018-09-23T20:27:23.736Z,3.00
2018-09-23T20:29:51.639Z,1.70
2018-09-23T20:32:19.593Z,2.60
2018-09-23T20:34:47.554Z,3.47
2018-09-23T20:37:15.623Z,12.23
2018-09-23T20:39:43.497Z,1.80
2018-09-23T20:42:11.449Z,2.07
2018-09-23T20:44:40.071Z,1.30
2018-09-23T20:47:08.039Z,2.10
2018-09-23T20:49:35.994Z,1.10
2018-09-23T20:52:03.938Z,1.90
2018-09-23T20:54:31.960Z,1.40
2018-09-23T20:56:59.891Z,2.60
2018-09-23T20:59:27.791Z,1.43
2018-09-23T21:01:55.765Z,1.30
2018-09-23T21:04:23.682Z,2.20
2018-09-23T21:06:51.593Z,1.33
2018-09-23T21:09:19.485Z,0.70
2018-09-23T21:11:47.404Z,1.30
2018-09-23T21:14:15.347Z,1.03
2018-09-23T21:16:43.363Z,0.77
2018-09-23T21:19:11.370Z,1.30
2018-09-23T21:21:39.298Z,1.13
2018-09-23T21:24:07.269Z,0.90
2018-09-23T21:26:35.258Z,1.10
2018-09-23T21:29:03.247Z,1.00
2018-09-23T21:31:31.150Z,0.70
2018-09-23T21:33:59.148Z,0.83
2018-09-23T21:36:27.092Z,0.77
2018-09-23T21:38:55.050Z,0.97
2018-09-23T21:41:22.950Z,0.83
2018-09-23T21:43:50.862Z,0.80
2018-09-23T21:46:18.766Z,0.70
2018-09-23T21:48:46.695Z,0.80
2018-09-23T21:51:14.592Z,0.80
2018-09-23T21:53:42.617Z,0.80
2018-09-23T21:56:10.600Z,0.80
2018-09-23T21:58:38.652Z,0.80
2018-09-23T22:01:06.874Z,0.70
2018-09-23T22:03:34.891Z,2.10
2018-09-23T22:06:02.888Z,0.50
2018-09-23T22:08:30.882Z,0.60
2018-09-23T22:10:58.898Z,1.53
2018-09-23T22:13:26.841Z,0.60
2018-09-23T22:15:54.827Z,0.50
2018-09-23T22:18:22.855Z,0.60
2018-09-23T22:20:50.812Z,0.63
2018-09-23T22:23:18.748Z,0.50
2018-09-23T22:25:46.681Z,0.50
2018-09-23T22:28:14.722Z,0.40
2018-09-23T22:30:42.685Z,1.43
2018-09-23T22:33:10.639Z,0.80
2018-09-23T22:35:38.702Z,6.00
2018-09-23T22:38:06.651Z,2.27
2018-09-23T22:40:34.554Z,2.45
2018-09-23T22:43:02.490Z,0.95
2018-09-23T22:45:30.553Z,1.02
2018-09-23T22:47:58.526Z,1.15
2018-09-23T22:50:26.589Z,0.50
2018-09-23T22:52:54.538Z,0.70
2018-09-23T22:55:22.478Z,2.00
2018-09-23T22:57:57.006Z,0.85
2018-09-23T23:00:25.022Z,0.68
2018-09-23T23:02:52.934Z,0.75
2018-09-23T23:05:20.898Z,1.75
2018-09-23T23:07:48.828Z,0.40
2018-09-23T23:10:16.787Z,0.55
2018-09-23T23:12:44.753Z,0.47
2018-09-23T23:15:12.672Z,0.40
2018-09-23T23:17:40.604Z,0.50
2018-09-23T23:20:08.532Z,0.50
2018-09-23T23:22:36.449Z,0.50
2018-09-23T23:25:04.462Z,0.40
2018-09-23T23:27:32.358Z,0.40
2018-09-23T23:30:00.290Z,0.40
2018-09-23T23:32:28.302Z,0.60
2018-09-23T23:34:56.279Z,0.40
2018-09-23T23:37:24.205Z,0.40
2018-09-23T23:39:52.113Z,0.55
2018-09-23T23:42:20.026Z,0.40
2018-09-23T23:44:47.966Z,0.50
2018-09-23T23:47:15.906Z,0.50
2018-09-23T23:49:43.870Z,0.80
2018-09-23T23:52:11.757Z,2.12
2018-09-23T23:54:39.739Z,0.40
2018-09-23T23:57:07.695Z,0.50
2018-09-23T23:59:35.723Z,0.40
